createdAt,value
2023-01-01T00:00:43.495Z,17.89
2023-01-01T00:01:47.212Z,17.82
2023-01-01T00:02:48.963Z,17.70
2023-01-01T00:03:55.581Z,17.59
2023-01-01T00:04:57.525Z,17.69
2023-01-01T00:05:59.291Z,17.73
2023-01-01T00:07:01.358Z,17.69
2023-01-01T00:08:05.215Z,17.68
2023-01-01T00:09:26.508Z,17.63
2023-01-01T00:10:28.218Z,17.56
2023-01-01T00:11:29.962Z,17.63
2023-01-01T00:12:47.283Z,17.67
2023-01-01T00:13:50.017Z,17.31
2023-01-01T00:14:51.821Z,17.20
2023-01-01T00:15:53.683Z,17.66
2023-01-01T00:16:56.452Z,17.03
2023-01-01T00:18:01.991Z,17.19
2023-01-01T00:19:03.962Z,17.09
2023-01-01T00:20:06.886Z,17.28
2023-01-01T00:21:17.659Z,17.31
2023-01-01T00:23:42.262Z,17.23
2023-01-01T00:24:44.032Z,16.80
2023-01-01T00:25:48.283Z,16.45
2023-01-01T00:26:50.144Z,16.80
2023-01-01T00:27:52.235Z,16.97
2023-01-01T00:28:56.498Z,16.94
2023-01-01T00:29:58.357Z,16.92
2023-01-01T00:31:00.267Z,16.82
2023-01-01T00:32:02.217Z,16.20
2023-01-01T00:33:04.206Z,16.88
2023-01-01T00:34:07.260Z,16.73
2023-01-01T00:35:09.888Z,17.08
2023-01-01T00:36:14.138Z,16.30
2023-01-01T00:37:17.459Z,16.38
2023-01-01T00:38:19.380Z,16.48
2023-01-01T00:39:21.104Z,16.56
2023-01-01T00:40:23.475Z,16.53
2023-01-01T00:41:25.415Z,16.16
2023-01-01T00:42:27.451Z,16.81
2023-01-01T00:43:29.405Z,16.37
2023-01-01T00:44:31.177Z,16.06
2023-01-01T00:45:36.816Z,16.73
2023-01-01T00:46:38.555Z,16.53
2023-01-01T00:47:40.381Z,16.36
2023-01-01T00:48:42.332Z,16.79
2023-01-01T00:49:43.972Z,16.73
2023-01-01T00:50:45.838Z,17.03
2023-01-01T00:51:47.680Z,16.90
2023-01-01T00:52:50.508Z,16.99
2023-01-01T00:53:52.223Z,16.55
2023-01-01T00:54:55.254Z,16.06
2023-01-01T00:55:57.188Z,16.46
2023-01-01T00:56:58.800Z,16.43
2023-01-01T00:58:00.613Z,16.56
2023-01-01T00:59:03.129Z,16.33
2023-01-01T01:00:06.271Z,16.36
2023-01-01T01:01:08.134Z,16.06
2023-01-01T01:02:10.020Z,16.29
2023-01-01T01:03:28.101Z,15.36
2023-01-01T01:04:30.049Z,16.46
2023-01-01T01:05:32.933Z,16.72
2023-01-01T01:06:35.244Z,16.71
2023-01-01T01:07:39.981Z,16.25
2023-01-01T01:08:49.279Z,16.52
2023-01-01T01:09:51.742Z,16.22
2023-01-01T01:10:53.922Z,16.39
2023-01-01T01:12:17.712Z,16.40
2023-01-01T01:13:17.347Z,16.33
2023-01-01T01:14:18.959Z,15.64
2023-01-01T01:15:21.304Z,16.35
2023-01-01T01:16:26.529Z,16.38
2023-01-01T01:17:29.800Z,15.65
2023-01-01T01:18:31.516Z,16.08
2023-01-01T01:19:33.543Z,16.25
2023-01-01T01:20:35.427Z,15.96
2023-01-01T01:21:37.917Z,16.36
2023-01-01T01:22:40.822Z,15.88
2023-01-01T01:23:42.533Z,15.46
2023-01-01T01:24:44.516Z,16.23
2023-01-01T01:25:47.856Z,16.23
2023-01-01T01:26:49.420Z,16.46
2023-01-01T01:27:52.385Z,16.62
2023-01-01T01:28:55.988Z,16.77
2023-01-01T01:29:57.549Z,16.64
2023-01-01T01:31:00.339Z,16.45
2023-01-01T01:32:02.087Z,16.77
2023-01-01T01:33:03.963Z,17.01
2023-01-01T01:34:08.654Z,16.68
2023-01-01T01:35:12.541Z,16.94
2023-01-01T01:36:17.442Z,16.15
2023-01-01T01:37:19.176Z,16.73
2023-01-01T01:38:21.120Z,16.91
2023-01-01T01:39:24.864Z,17.09
2023-01-01T01:40:26.441Z,16.83
2023-01-01T01:41:29.248Z,16.71
2023-01-01T01:42:31.108Z,17.64
2023-01-01T01:43:32.843Z,17.79
2023-01-01T01:44:47.119Z,17.66
2023-01-01T01:45:50.149Z,17.48
2023-01-01T01:46:51.949Z,16.69
2023-01-01T01:47:56.832Z,16.43
2023-01-01T01:49:14.879Z,16.83
2023-01-01T01:50:27.930Z,17.57
2023-01-01T01:51:38.546Z,17.57
2023-01-01T01:52:46.158Z,17.63
2023-01-01T01:53:52.448Z,17.51
2023-01-01T01:54:55.167Z,17.26
2023-01-01T01:56:01.520Z,17.60
2023-01-01T01:57:07.958Z,17.20
2023-01-01T01:58:12.583Z,16.92
2023-01-01T01:59:16.134Z,16.86
2023-01-01T02:00:18.096Z,16.84
2023-01-01T02:01:21.043Z,17.37
2023-01-01T02:02:26.840Z,17.04
2023-01-01T02:03:47.871Z,17.35
2023-01-01T02:04:50.359Z,17.27
2023-01-01T02:05:52.379Z,17.16
2023-01-01T02:06:55.311Z,17.13
2023-01-01T02:08:00.689Z,16.97
2023-01-01T02:09:05.913Z,16.50
2023-01-01T02:10:07.990Z,16.51
2023-01-01T02:11:11.126Z,17.14
2023-01-01T02:12:15.999Z,16.91
2023-01-01T02:13:20.574Z,16.51
2023-01-01T02:14:22.595Z,17.05
2023-01-01T02:15:30.337Z,17.01
2023-01-01T02:16:38.058Z,17.18
2023-01-01T02:17:46.035Z,17.38
2023-01-01T02:18:53.399Z,17.40
2023-01-01T02:20:05.062Z,17.36
2023-01-01T02:21:14.738Z,17.49
2023-01-01T02:22:32.355Z,17.15
2023-01-01T02:23:53.301Z,17.31
2023-01-01T02:25:28.591Z,17.25
2023-01-01T02:26:39.062Z,17.19
2023-01-01T02:28:39.891Z,17.20
2023-01-01T02:30:00.512Z,16.85
2023-01-01T02:31:04.752Z,17.00
2023-01-01T02:32:09.361Z,17.15
2023-01-01T02:33:21.526Z,16.83
2023-01-01T02:34:28.779Z,16.91
2023-01-01T02:35:39.336Z,16.76
2023-01-01T02:36:48.606Z,16.62
2023-01-01T02:37:53.914Z,16.51
2023-01-01T02:38:58.234Z,16.05
2023-01-01T02:40:08.789Z,16.36
2023-01-01T02:41:20.047Z,16.67
2023-01-01T02:42:26.500Z,16.90
2023-01-01T02:43:28.953Z,16.98
2023-01-01T02:44:34.858Z,17.04
2023-01-01T02:45:37.064Z,16.80
2023-01-01T02:46:39.010Z,16.62
2023-01-01T02:47:41.253Z,17.06
2023-01-01T02:48:53.847Z,16.96
2023-01-01T02:50:10.672Z,17.22
2023-01-01T02:51:36.999Z,17.28
2023-01-01T02:52:45.446Z,17.14
2023-01-01T02:54:01.653Z,16.98
2023-01-01T02:55:19.641Z,17.04
2023-01-01T02:56:36.167Z,17.26
2023-01-01T02:57:52.896Z,17.29
2023-01-01T02:59:31.163Z,17.40
2023-01-01T03:00:35.446Z,17.10
2023-01-01T03:02:21.653Z,17.31
2023-01-01T03:03:38.547Z,17.24
2023-01-01T03:05:03.750Z,17.09
2023-01-01T03:06:34.307Z,16.84
2023-01-01T03:07:51.433Z,16.72
2023-01-01T03:09:05.560Z,17.12
2023-01-01T03:10:19.352Z,16.93
2023-01-01T03:11:24.422Z,17.26
2023-01-01T03:12:43.483Z,17.32
2023-01-01T03:13:58.681Z,17.31
2023-01-01T03:15:07.142Z,17.24
2023-01-01T03:16:41.512Z,17.36
2023-01-01T03:18:02.262Z,17.37
2023-01-01T03:19:15.537Z,17.08
2023-01-01T03:20:28.582Z,17.16
2023-01-01T03:21:30.898Z,16.65
2023-01-01T03:23:49.884Z,16.61
2023-01-01T03:24:56.739Z,17.33
2023-01-01T03:26:02.918Z,17.16
2023-01-01T03:27:09.755Z,16.57
2023-01-01T03:28:27.891Z,17.30
2023-01-01T03:29:33.629Z,17.10
2023-01-01T03:30:37.908Z,17.23
2023-01-01T03:31:43.767Z,17.39
2023-01-01T03:33:09.068Z,17.25
2023-01-01T03:34:17.385Z,17.53
2023-01-01T03:35:21.743Z,17.37
2023-01-01T03:36:31.051Z,17.47
2023-01-01T03:37:33.446Z,16.94
2023-01-01T03:38:37.870Z,17.60
2023-01-01T03:39:47.399Z,17.64
2023-01-01T03:40:53.996Z,17.73
2023-01-01T03:42:10.167Z,17.67
2023-01-01T03:43:22.263Z,17.30
2023-01-01T03:44:35.342Z,17.64
2023-01-01T03:45:41.229Z,17.49
2023-01-01T03:46:43.301Z,17.30
2023-01-01T03:47:46.152Z,17.15
2023-01-01T03:49:02.738Z,17.02
2023-01-01T03:50:06.737Z,16.92
2023-01-01T03:51:21.625Z,17.09
2023-01-01T03:52:28.854Z,17.37
2023-01-01T03:53:42.035Z,17.16
2023-01-01T03:54:59.615Z,17.36
2023-01-01T03:56:22.214Z,17.22
2023-01-01T03:57:52.366Z,17.21
2023-01-01T03:59:18.319Z,17.38
2023-01-01T04:00:23.697Z,17.29
2023-01-01T04:01:37.867Z,17.57
2023-01-01T04:02:46.535Z,17.72
2023-01-01T04:03:49.769Z,17.62
2023-01-01T04:04:51.556Z,17.60
2023-01-01T04:05:53.516Z,17.26
2023-01-01T04:06:55.791Z,17.52
2023-01-01T04:08:01.954Z,17.28
2023-01-01T04:09:08.068Z,17.53
2023-01-01T04:10:19.338Z,17.85
2023-01-01T04:11:43.554Z,17.42
2023-01-01T04:12:52.236Z,17.60
2023-01-01T04:13:53.884Z,17.21
2023-01-01T04:14:55.588Z,17.24
2023-01-01T04:15:57.235Z,17.04
2023-01-01T04:16:59.974Z,17.16
2023-01-01T04:18:02.322Z,16.81
2023-01-01T04:19:07.105Z,16.47
2023-01-01T04:20:09.564Z,17.43
2023-01-01T04:21:12.555Z,17.12
2023-01-01T04:22:14.201Z,17.54
2023-01-01T04:23:15.795Z,17.49
2023-01-01T04:24:17.467Z,17.42
2023-01-01T04:25:19.002Z,17.49
2023-01-01T04:26:20.654Z,17.54
2023-01-01T04:27:22.287Z,17.04
2023-01-01T04:28:23.951Z,17.20
2023-01-01T04:29:25.741Z,17.55
2023-01-01T04:30:28.281Z,17.55
2023-01-01T04:31:29.917Z,17.48
2023-01-01T04:32:31.530Z,17.58
2023-01-01T04:33:33.209Z,17.07
2023-01-01T04:34:34.854Z,17.23
2023-01-01T04:35:36.841Z,17.16
2023-01-01T04:36:39.017Z,17.43
2023-01-01T04:37:43.090Z,17.46
2023-01-01T04:38:44.805Z,17.24
2023-01-01T04:39:46.473Z,16.45
2023-01-01T04:40:57.992Z,16.98
2023-01-01T04:41:59.588Z,16.97
2023-01-01T04:43:01.100Z,17.08
2023-01-01T04:44:03.060Z,17.29
2023-01-01T04:45:04.997Z,17.29
2023-01-01T04:46:06.625Z,17.46
2023-01-01T04:47:08.574Z,17.59
2023-01-01T04:48:10.141Z,17.25
2023-01-01T04:49:11.797Z,17.01
2023-01-01T04:50:13.518Z,17.59
2023-01-01T04:51:17.927Z,17.67
2023-01-01T04:52:19.725Z,17.46
2023-01-01T04:53:21.290Z,16.98
2023-01-01T04:54:22.950Z,17.66
2023-01-01T04:55:24.584Z,17.00
2023-01-01T04:56:26.173Z,17.69
2023-01-01T04:57:30.536Z,17.21
2023-01-01T04:58:33.376Z,16.97
2023-01-01T04:59:35.061Z,17.08
2023-01-01T05:00:36.820Z,17.70
2023-01-01T05:01:38.731Z,17.78
2023-01-01T05:02:40.514Z,17.49
2023-01-01T05:03:42.237Z,17.33
2023-01-01T05:04:43.882Z,18.00
2023-01-01T05:05:51.095Z,17.93
2023-01-01T05:06:53.198Z,18.10
2023-01-01T05:07:54.745Z,18.02
2023-01-01T05:08:57.601Z,18.13
2023-01-01T05:09:59.181Z,18.00
2023-01-01T05:11:07.437Z,17.94
2023-01-01T05:12:09.157Z,17.74
2023-01-01T05:13:10.748Z,17.84
2023-01-01T05:14:12.476Z,17.98
2023-01-01T05:15:14.213Z,18.03
2023-01-01T05:16:19.044Z,17.72
2023-01-01T05:17:20.706Z,17.85
2023-01-01T05:18:22.708Z,17.62
2023-01-01T05:19:24.294Z,17.33
2023-01-01T05:20:26.392Z,17.08
2023-01-01T05:21:33.412Z,17.46
2023-01-01T05:22:35.022Z,17.45
2023-01-01T05:23:36.847Z,17.21
2023-01-01T05:24:38.521Z,16.99
2023-01-01T05:25:40.100Z,17.08
2023-01-01T05:26:44.249Z,17.69
2023-01-01T05:27:45.802Z,17.47
2023-01-01T05:28:47.957Z,16.70
2023-01-01T05:29:49.727Z,17.25
2023-01-01T05:30:52.683Z,17.43
2023-01-01T05:31:54.319Z,17.29
2023-01-01T05:32:55.965Z,17.37
2023-01-01T05:34:59.628Z,17.35
2023-01-01T05:36:01.779Z,17.55
2023-01-01T05:37:03.350Z,16.94
2023-01-01T05:38:05.110Z,17.47
2023-01-01T05:39:12.521Z,17.49
2023-01-01T05:40:14.250Z,17.30
2023-01-01T05:41:17.030Z,17.38
2023-01-01T05:42:20.536Z,17.30
2023-01-01T05:43:22.429Z,17.19
2023-01-01T05:44:24.112Z,17.18
2023-01-01T05:45:25.705Z,17.15
2023-01-01T05:46:29.382Z,17.21
2023-01-01T05:47:31.214Z,17.19
2023-01-01T05:48:34.828Z,16.40
2023-01-01T05:49:36.533Z,16.47
2023-01-01T05:50:38.081Z,16.40
2023-01-01T05:52:40.430Z,17.30
2023-01-01T05:53:42.602Z,17.51
2023-01-01T05:54:44.232Z,17.70
2023-01-01T05:55:52.839Z,17.86
2023-01-01T05:56:54.427Z,17.81
2023-01-01T05:57:56.085Z,17.46
2023-01-01T05:58:57.665Z,17.65
2023-01-01T05:59:59.318Z,17.29
2023-01-01T06:01:16.111Z,17.22
2023-01-01T06:02:17.838Z,17.52
2023-01-01T06:03:19.473Z,17.30
2023-01-01T06:04:21.099Z,16.93
2023-01-01T06:05:22.634Z,17.66
2023-01-01T06:06:28.997Z,17.47
2023-01-01T06:07:30.709Z,17.17
2023-01-01T06:08:32.430Z,17.68
2023-01-01T06:09:34.083Z,17.03
2023-01-01T06:10:35.935Z,17.79
2023-01-01T06:11:37.807Z,17.13
2023-01-01T06:12:39.409Z,17.74
2023-01-01T06:13:44.101Z,17.43
2023-01-01T06:14:45.773Z,17.35
2023-01-01T06:15:54.246Z,17.72
2023-01-01T06:16:55.890Z,17.66
2023-01-01T06:18:00.343Z,17.47
2023-01-01T06:19:02.133Z,17.89
2023-01-01T06:20:04.412Z,17.71
2023-01-01T06:21:10.915Z,17.67
2023-01-01T06:22:12.528Z,17.53
2023-01-01T06:23:14.283Z,17.40
2023-01-01T06:24:16.138Z,16.89
2023-01-01T06:25:17.747Z,17.28
2023-01-01T06:26:22.116Z,17.53
2023-01-01T06:27:23.670Z,17.36
2023-01-01T06:28:25.456Z,17.38
2023-01-01T06:29:27.178Z,17.27
2023-01-01T06:30:28.813Z,17.47
2023-01-01T06:31:35.609Z,17.70
2023-01-01T06:32:40.142Z,17.73
2023-01-01T06:33:42.257Z,17.65
2023-01-01T06:34:44.044Z,17.05
2023-01-01T06:35:45.580Z,17.58
2023-01-01T06:36:47.344Z,17.77
2023-01-01T06:37:48.995Z,17.51
2023-01-01T06:38:53.221Z,17.94
2023-01-01T06:39:54.977Z,17.80
2023-01-01T06:41:04.139Z,17.75
2023-01-01T06:42:05.817Z,17.70
2023-01-01T06:43:07.440Z,17.58
2023-01-01T06:44:09.100Z,17.48
2023-01-01T06:45:11.076Z,17.51
2023-01-01T06:46:29.604Z,17.65
2023-01-01T06:47:34.276Z,17.47
2023-01-01T06:48:36.908Z,17.83
2023-01-01T06:49:38.952Z,17.66
2023-01-01T06:50:40.544Z,17.00
2023-01-01T06:51:43.765Z,17.47
2023-01-01T06:52:47.507Z,17.40
2023-01-01T06:53:49.910Z,17.76
2023-01-01T06:54:51.517Z,17.86
2023-01-01T06:55:57.421Z,17.93
2023-01-01T06:56:59.233Z,17.74
2023-01-01T06:58:00.755Z,17.62
2023-01-01T06:59:02.689Z,17.47
2023-01-01T07:00:05.453Z,17.24
2023-01-01T07:01:18.595Z,17.65
2023-01-01T07:02:20.490Z,17.34
2023-01-01T07:03:25.184Z,17.27
2023-01-01T07:04:26.901Z,16.90
2023-01-01T07:05:28.712Z,16.42
2023-01-01T07:06:32.987Z,16.72
2023-01-01T07:07:36.168Z,16.14
2023-01-01T07:08:38.388Z,16.69
2023-01-01T07:09:40.092Z,16.98
2023-01-01T07:10:41.777Z,16.87
2023-01-01T07:11:43.882Z,16.12
2023-01-01T07:12:45.481Z,17.39
2023-01-01T07:13:47.102Z,17.52
2023-01-01T07:14:48.807Z,17.16
2023-01-01T07:15:50.431Z,17.12
2023-01-01T07:16:52.206Z,16.68
2023-01-01T07:17:53.992Z,15.88
2023-01-01T07:18:57.836Z,16.36
2023-01-01T07:20:01.712Z,16.65
2023-01-01T07:21:04.762Z,16.53
2023-01-01T07:22:06.611Z,16.08
2023-01-01T07:23:11.292Z,15.68
2023-01-01T07:24:15.467Z,16.16
2023-01-01T07:25:17.246Z,16.18
2023-01-01T07:26:18.969Z,16.31
2023-01-01T07:27:20.578Z,15.86
2023-01-01T07:28:23.729Z,16.43
2023-01-01T07:29:25.339Z,16.04
2023-01-01T07:30:27.067Z,16.56
2023-01-01T07:31:28.787Z,16.61
2023-01-01T07:32:30.356Z,16.31
2023-01-01T07:33:31.963Z,16.63
2023-01-01T07:34:34.196Z,16.18
2023-01-01T07:35:36.083Z,16.77
2023-01-01T07:36:38.445Z,17.16
2023-01-01T07:37:40.033Z,16.47
2023-01-01T07:38:41.737Z,17.16
2023-01-01T07:39:43.391Z,17.32
2023-01-01T07:40:45.102Z,16.47
2023-01-01T07:41:46.691Z,17.04
2023-01-01T07:42:48.274Z,16.65
2023-01-01T07:43:49.989Z,17.16
2023-01-01T07:44:51.801Z,17.05
2023-01-01T07:45:53.897Z,16.98
2023-01-01T07:47:09.677Z,16.79
2023-01-01T07:48:15.417Z,17.11
2023-01-01T07:49:18.481Z,16.61
2023-01-01T07:50:20.948Z,16.96
2023-01-01T07:51:22.749Z,16.92
2023-01-01T07:52:27.101Z,16.74
2023-01-01T07:53:28.654Z,16.50
2023-01-01T07:54:30.255Z,16.06
2023-01-01T07:55:36.915Z,17.09
2023-01-01T07:56:38.996Z,16.81
2023-01-01T07:57:41.754Z,17.18
2023-01-01T07:58:43.477Z,16.68
2023-01-01T07:59:45.078Z,17.10
2023-01-01T08:00:48.699Z,17.18
2023-01-01T08:01:50.951Z,17.05
2023-01-01T08:02:52.905Z,17.06
2023-01-01T08:03:54.895Z,16.87
2023-01-01T08:04:56.980Z,17.18
2023-01-01T08:05:58.659Z,16.72
2023-01-01T08:07:00.576Z,17.01
2023-01-01T08:08:02.224Z,17.19
2023-01-01T08:09:04.054Z,17.62
2023-01-01T08:10:11.029Z,17.75
2023-01-01T08:11:12.644Z,17.18
2023-01-01T08:12:14.395Z,17.89
2023-01-01T08:13:16.121Z,17.93
2023-01-01T08:14:17.753Z,17.52
2023-01-01T08:15:19.573Z,17.33
2023-01-01T08:16:22.678Z,18.19
2023-01-01T08:17:24.485Z,18.19
2023-01-01T08:18:26.772Z,18.49
2023-01-01T08:19:28.337Z,18.49
2023-01-01T08:21:50.632Z,18.37
2023-01-01T08:22:52.679Z,18.58
2023-01-01T08:23:54.362Z,18.78
2023-01-01T08:24:56.020Z,18.93
2023-01-01T08:26:02.268Z,19.01
2023-01-01T08:27:03.891Z,18.95
2023-01-01T08:28:05.560Z,18.95
2023-01-01T08:29:08.457Z,19.10
2023-01-01T08:30:12.769Z,19.09
2023-01-01T08:31:14.599Z,18.75
2023-01-01T08:32:16.248Z,18.27
2023-01-01T08:33:19.102Z,18.90
2023-01-01T08:34:20.881Z,18.65
2023-01-01T08:35:24.620Z,18.89
2023-01-01T08:36:26.425Z,18.66
2023-01-01T08:37:28.056Z,18.77
2023-01-01T08:38:29.686Z,18.34
2023-01-01T08:39:31.362Z,17.99
2023-01-01T08:40:33.962Z,18.13
2023-01-01T08:41:35.599Z,18.07
2023-01-01T08:42:37.349Z,18.71
2023-01-01T08:43:39.010Z,18.52
2023-01-01T08:44:43.068Z,18.66
2023-01-01T08:45:45.597Z,19.22
2023-01-01T08:46:47.378Z,19.23
2023-01-01T08:47:49.075Z,19.30
2023-01-01T08:48:50.810Z,19.43
2023-01-01T08:49:55.912Z,18.81
2023-01-01T08:51:02.738Z,19.29
2023-01-01T08:52:07.495Z,19.24
2023-01-01T08:53:09.052Z,18.94
2023-01-01T08:54:10.666Z,18.47
2023-01-01T08:55:12.367Z,18.07
2023-01-01T08:56:15.970Z,18.02
2023-01-01T08:57:17.820Z,18.39
2023-01-01T08:58:19.775Z,18.15
2023-01-01T08:59:21.805Z,18.33
2023-01-01T09:00:24.558Z,18.45
2023-01-01T09:01:28.400Z,17.79
2023-01-01T09:02:31.962Z,17.96
2023-01-01T09:03:35.396Z,17.98
2023-01-01T09:04:37.373Z,18.49
2023-01-01T09:05:45.803Z,18.37
2023-01-01T09:06:49.698Z,18.51
2023-01-01T09:07:52.866Z,18.28
2023-01-01T09:08:55.587Z,18.67
2023-01-01T09:09:57.456Z,18.83
2023-01-01T09:11:03.749Z,19.13
2023-01-01T09:12:07.303Z,18.14
2023-01-01T09:13:14.095Z,18.69
2023-01-01T09:14:15.785Z,18.75
2023-01-01T09:15:17.712Z,19.04
2023-01-01T09:16:20.046Z,19.27
2023-01-01T09:17:22.246Z,19.44
2023-01-01T09:18:25.092Z,19.65
2023-01-01T09:19:30.043Z,20.18
2023-01-01T09:20:32.210Z,20.19
2023-01-01T09:21:34.014Z,20.80
2023-01-01T09:22:38.575Z,20.25
2023-01-01T09:23:40.642Z,21.05
2023-01-01T09:24:42.461Z,20.18
2023-01-01T09:25:44.345Z,21.19
2023-01-01T09:26:47.183Z,21.43
2023-01-01T09:27:48.923Z,21.48
2023-01-01T09:28:50.778Z,21.51
2023-01-01T09:29:54.766Z,21.74
2023-01-01T09:30:56.634Z,21.37
2023-01-01T09:31:58.516Z,21.74
2023-01-01T09:33:00.153Z,22.15
2023-01-01T09:34:01.979Z,22.33
2023-01-01T09:35:04.005Z,22.92
2023-01-01T09:36:21.261Z,23.57
2023-01-01T09:37:24.223Z,23.39
2023-01-01T09:38:25.962Z,23.15
2023-01-01T09:39:28.313Z,22.53
2023-01-01T09:40:56.458Z,22.15
2023-01-01T09:42:19.763Z,22.55
2023-01-01T09:43:27.903Z,22.56
2023-01-01T09:44:44.895Z,22.35
2023-01-01T09:46:06.646Z,21.89
2023-01-01T09:47:22.255Z,21.48
2023-01-01T09:48:26.739Z,21.62
2023-01-01T09:49:43.282Z,21.52
2023-01-01T09:50:47.023Z,21.94
2023-01-01T09:51:58.126Z,22.61
2023-01-01T09:53:03.672Z,23.26
2023-01-01T09:54:16.223Z,23.35
2023-01-01T09:55:47.797Z,23.52
2023-01-01T09:56:55.998Z,23.47
2023-01-01T09:57:58.289Z,23.46
2023-01-01T09:59:00.277Z,23.29
2023-01-01T10:00:02.060Z,22.90
2023-01-01T10:01:16.114Z,23.03
2023-01-01T10:02:24.011Z,23.21
2023-01-01T10:03:37.975Z,23.35
2023-01-01T10:04:39.673Z,23.33
2023-01-01T10:06:01.515Z,23.84
2023-01-01T10:07:20.451Z,24.15
2023-01-01T10:08:37.364Z,24.95
2023-01-01T10:10:00.044Z,24.65
2023-01-01T10:11:04.651Z,23.98
2023-01-01T10:12:25.096Z,24.07
2023-01-01T10:13:39.040Z,24.46
2023-01-01T10:14:57.896Z,24.54
2023-01-01T10:16:10.601Z,24.63
2023-01-01T10:17:20.222Z,24.00
2023-01-01T10:18:26.112Z,23.57
2023-01-01T10:19:37.991Z,23.90
2023-01-01T10:20:46.469Z,23.65
2023-01-01T10:21:51.050Z,23.05
2023-01-01T10:22:57.928Z,23.02
2023-01-01T10:24:09.835Z,22.51
2023-01-01T10:25:19.851Z,21.78
2023-01-01T10:26:25.409Z,21.38
2023-01-01T10:27:36.087Z,21.08
2023-01-01T10:28:54.920Z,21.14
2023-01-01T10:30:03.434Z,21.19
2023-01-01T10:31:28.073Z,21.17
2023-01-01T10:32:35.968Z,21.02
2023-01-01T10:33:38.045Z,21.23
2023-01-01T10:34:39.985Z,21.24
2023-01-01T10:35:49.779Z,21.23
2023-01-01T10:36:57.724Z,20.78
2023-01-01T10:38:01.034Z,20.95
2023-01-01T10:39:03.284Z,21.11
2023-01-01T10:40:16.847Z,20.73
2023-01-01T10:41:20.164Z,21.28
2023-01-01T10:42:22.028Z,21.55
2023-01-01T10:43:23.683Z,21.81
2023-01-01T10:44:34.511Z,21.94
2023-01-01T10:45:44.344Z,22.19
2023-01-01T10:46:54.949Z,22.19
2023-01-01T10:48:19.805Z,22.56
2023-01-01T10:49:21.657Z,23.38
2023-01-01T10:50:42.640Z,24.13
2023-01-01T10:51:52.778Z,23.78
2023-01-01T10:52:57.616Z,23.15
2023-01-01T10:53:59.744Z,23.33
2023-01-01T10:55:01.803Z,23.40
2023-01-01T10:56:13.688Z,23.44
2023-01-01T10:57:27.593Z,22.78
2023-01-01T10:58:41.326Z,22.78
2023-01-01T10:59:48.311Z,23.28
2023-01-01T11:01:01.715Z,23.79
2023-01-01T11:02:23.056Z,23.76
2023-01-01T11:03:24.967Z,24.02
2023-01-01T11:04:26.751Z,24.13
2023-01-01T11:05:28.501Z,24.62
2023-01-01T11:06:43.236Z,24.91
2023-01-01T11:07:45.367Z,25.05
2023-01-01T11:08:50.117Z,25.03
2023-01-01T11:10:03.225Z,25.36
2023-01-01T11:11:06.019Z,26.05
2023-01-01T11:12:45.964Z,25.77
2023-01-01T11:13:40.605Z,25.56
2023-01-01T11:14:49.318Z,24.51
2023-01-01T11:15:51.762Z,24.59
2023-01-01T11:16:54.724Z,24.88
2023-01-01T11:18:04.855Z,25.01
2023-01-01T11:19:08.618Z,24.38
2023-01-01T11:20:18.758Z,24.07
2023-01-01T11:21:24.344Z,24.17
2023-01-01T11:22:52.930Z,23.93
2023-01-01T11:24:20.361Z,23.92
2023-01-01T11:25:25.421Z,24.57
2023-01-01T11:26:27.766Z,24.93
2023-01-01T11:27:29.535Z,25.72
2023-01-01T11:28:35.064Z,26.43
2023-01-01T11:29:37.256Z,27.27
2023-01-01T11:30:39.736Z,27.38
2023-01-01T11:31:43.368Z,26.59
2023-01-01T11:32:48.164Z,27.17
2023-01-01T11:33:55.573Z,26.18
2023-01-01T11:35:06.503Z,25.81
2023-01-01T11:36:08.627Z,25.58
2023-01-01T11:37:27.686Z,25.83
2023-01-01T11:38:30.634Z,25.96
2023-01-01T11:39:37.330Z,25.81
2023-01-01T11:40:46.394Z,26.11
2023-01-01T11:41:50.932Z,26.56
2023-01-01T11:42:58.308Z,26.60
2023-01-01T11:44:00.706Z,25.87
2023-01-01T11:45:19.205Z,25.19
2023-01-01T11:46:24.823Z,25.41
2023-01-01T11:47:29.429Z,25.62
2023-01-01T11:48:33.895Z,25.96
2023-01-01T11:49:35.831Z,26.08
2023-01-01T11:50:53.636Z,25.33
2023-01-01T11:51:56.718Z,25.36
2023-01-01T11:53:16.747Z,24.73
2023-01-01T11:54:28.818Z,24.96
2023-01-01T11:55:45.794Z,25.54
2023-01-01T11:56:53.289Z,26.18
2023-01-01T11:57:55.089Z,26.47
2023-01-01T11:59:00.053Z,26.75
2023-01-01T12:00:04.851Z,27.11
2023-01-01T12:01:19.888Z,26.05
2023-01-01T12:02:50.508Z,26.08
2023-01-01T12:04:09.362Z,26.37
2023-01-01T12:05:22.557Z,26.34
2023-01-01T12:06:32.458Z,26.17
2023-01-01T12:07:38.880Z,26.55
2023-01-01T12:08:48.788Z,26.78
2023-01-01T12:10:05.038Z,27.83
2023-01-01T12:11:24.649Z,28.82
2023-01-01T12:12:32.351Z,29.02
2023-01-01T12:13:45.999Z,28.94
2023-01-01T12:15:13.245Z,29.09
2023-01-01T12:16:33.935Z,28.45
2023-01-01T12:17:43.916Z,28.12
2023-01-01T12:18:50.454Z,28.87
2023-01-01T12:20:01.212Z,29.22
2023-01-01T12:21:26.395Z,29.20
2023-01-01T12:22:28.547Z,29.86
2023-01-01T12:23:32.282Z,30.61
2023-01-01T12:24:35.359Z,30.41
2023-01-01T12:25:44.419Z,30.81
2023-01-01T12:27:10.791Z,30.99
2023-01-01T12:28:29.891Z,31.29
2023-01-01T12:30:11.002Z,31.83
2023-01-01T12:31:41.191Z,30.68
2023-01-01T12:33:11.998Z,28.92
2023-01-01T12:34:28.722Z,27.66
2023-01-01T12:35:33.496Z,28.22
2023-01-01T12:36:58.522Z,28.13
2023-01-01T12:38:29.312Z,27.15
2023-01-01T12:39:31.021Z,27.51
2023-01-01T12:41:02.115Z,26.65
2023-01-01T12:42:15.883Z,25.99
2023-01-01T12:43:48.761Z,26.29
2023-01-01T12:45:31.168Z,26.70
2023-01-01T12:46:38.726Z,26.10
2023-01-01T12:47:49.710Z,25.37
2023-01-01T12:49:06.151Z,24.22
2023-01-01T12:50:20.532Z,23.55
2023-01-01T12:51:28.235Z,23.45
2023-01-01T12:52:51.791Z,23.93
2023-01-01T12:54:23.212Z,23.92
2023-01-01T12:56:14.207Z,23.82
2023-01-01T12:58:01.034Z,23.53
2023-01-01T12:59:11.605Z,23.21
2023-01-01T13:00:19.670Z,23.36
2023-01-01T13:01:32.829Z,23.50
2023-01-01T13:02:39.464Z,23.59
2023-01-01T13:03:52.009Z,23.32
2023-01-01T13:04:59.637Z,23.41
2023-01-01T13:06:02.759Z,23.35
2023-01-01T13:07:11.961Z,23.19
2023-01-01T13:08:13.804Z,23.51
2023-01-01T13:09:20.003Z,23.91
2023-01-01T13:10:35.949Z,23.82
2023-01-01T13:11:44.985Z,23.94
2023-01-01T13:12:48.119Z,23.62
2023-01-01T13:13:50.024Z,23.53
2023-01-01T13:14:52.062Z,23.54
2023-01-01T13:15:55.882Z,23.53
2023-01-01T13:16:58.317Z,23.64
2023-01-01T13:18:00.618Z,24.01
2023-01-01T13:19:03.308Z,24.26
2023-01-01T13:20:23.703Z,24.27
2023-01-01T13:21:28.547Z,24.03
2023-01-01T13:22:39.177Z,23.86
2023-01-01T13:23:46.173Z,23.32
2023-01-01T13:25:19.760Z,22.97
2023-01-01T13:26:21.717Z,22.78
2023-01-01T13:28:03.599Z,22.65
2023-01-01T13:29:05.760Z,22.60
2023-01-01T13:30:45.437Z,22.68
2023-01-01T13:31:47.542Z,22.68
2023-01-01T13:33:25.075Z,22.58
2023-01-01T13:34:59.761Z,22.61
2023-01-01T13:36:07.690Z,22.52
2023-01-01T13:37:15.527Z,22.30
2023-01-01T13:38:46.393Z,21.84
2023-01-01T13:39:58.424Z,21.58
2023-01-01T13:41:00.395Z,21.62
2023-01-01T13:42:02.128Z,21.69
2023-01-01T13:43:18.799Z,21.39
2023-01-01T13:44:23.860Z,21.34
2023-01-01T13:46:09.793Z,20.96
2023-01-01T13:47:20.390Z,20.90
2023-01-01T13:48:28.285Z,20.83
2023-01-01T13:49:52.270Z,20.84
2023-01-01T13:51:40.432Z,20.87
2023-01-01T13:52:55.887Z,20.85
2023-01-01T13:54:17.309Z,20.76
2023-01-01T13:56:07.857Z,20.70
2023-01-01T13:57:28.836Z,20.65
2023-01-01T13:58:35.932Z,20.60
2023-01-01T13:59:59.268Z,20.57
2023-01-01T14:01:07.488Z,20.46
2023-01-01T14:02:15.593Z,20.33
2023-01-01T14:03:19.371Z,20.28
2023-01-01T14:04:47.369Z,20.17
2023-01-01T14:05:57.218Z,19.91
2023-01-01T14:07:40.881Z,19.92
2023-01-01T14:08:35.426Z,19.57
2023-01-01T14:09:37.297Z,19.52
2023-01-01T14:10:39.005Z,19.52
2023-01-01T14:11:41.343Z,19.50
2023-01-01T14:12:43.038Z,19.44
2023-01-01T14:13:44.803Z,19.38
2023-01-01T14:14:47.805Z,19.35
2023-01-01T14:16:09.103Z,19.35
2023-01-01T14:17:14.538Z,19.33
2023-01-01T14:18:19.138Z,19.20
2023-01-01T14:19:22.741Z,18.99
2023-01-01T14:20:54.980Z,18.93
2023-01-01T14:21:57.492Z,19.00
2023-01-01T14:23:06.436Z,19.05
2023-01-01T14:24:08.830Z,19.10
2023-01-01T14:25:16.257Z,19.13
2023-01-01T14:26:23.486Z,19.15
2023-01-01T14:27:28.160Z,19.23
2023-01-01T14:28:32.946Z,19.24
2023-01-01T14:29:35.909Z,19.25
2023-01-01T14:30:37.748Z,19.28